createdAt,value
2023-12-28T00:01:17.988Z,9.80
2023-12-28T00:05:26.651Z,9.80
2023-12-28T00:09:35.524Z,9.80
2023-12-28T00:13:44.349Z,9.80
2023-12-28T00:17:53.152Z,9.80
2023-12-28T00:22:01.868Z,9.80
2023-12-28T00:26:10.548Z,9.70
2023-12-28T00:30:19.606Z,9.80
2023-12-28T00:34:28.474Z,9.70
2023-12-28T00:38:37.308Z,9.70
2023-12-28T00:42:46.093Z,9.70
2023-12-28T00:46:54.699Z,9.70
2023-12-28T00:51:03.325Z,9.80
2023-12-28T00:55:12.830Z,9.80
2023-12-28T00:59:21.440Z,9.80
2023-12-28T01:03:30.169Z,9.70
2023-12-28T01:07:38.918Z,9.70
2023-12-28T01:11:47.519Z,9.60
2023-12-28T01:15:56.260Z,9.60
2023-12-28T01:20:05.310Z,9.60
2023-12-28T01:24:13.930Z,9.60
2023-12-28T01:28:22.564Z,9.60
2023-12-28T01:32:31.183Z,9.60
2023-12-28T01:36:41.435Z,9.60
2023-12-28T01:40:50.048Z,9.60
2023-12-28T01:44:59.557Z,9.70
2023-12-28T01:49:08.487Z,9.70
2023-12-28T01:53:17.397Z,9.70
2023-12-28T01:57:26.387Z,9.70
2023-12-28T02:01:35.113Z,9.80
2023-12-28T02:05:44.102Z,9.80
2023-12-28T02:09:53.000Z,9.80
2023-12-28T02:14:01.671Z,9.80
2023-12-28T02:18:16.309Z,9.90
2023-12-28T02:22:27.744Z,9.90
2023-12-28T02:26:36.460Z,9.90
2023-12-28T02:30:45.158Z,9.90
2023-12-28T02:34:56.948Z,9.90
2023-12-28T02:39:06.142Z,10.00
2023-12-28T02:43:14.922Z,10.00
2023-12-28T02:47:23.568Z,10.00
2023-12-28T02:51:32.293Z,10.00
2023-12-28T02:55:41.044Z,10.00
2023-12-28T02:59:49.819Z,10.00
2023-12-28T03:03:58.534Z,10.00
2023-12-28T03:08:07.268Z,10.00
2023-12-28T03:12:17.433Z,10.00
2023-12-28T03:16:45.420Z,10.00
2023-12-28T03:20:57.448Z,10.10
2023-12-28T03:25:06.655Z,10.10
2023-12-28T03:29:15.341Z,10.10
2023-12-28T03:33:43.340Z,10.10
2023-12-28T03:37:51.942Z,10.10
2023-12-28T03:42:19.980Z,10.10
2023-12-28T03:46:28.749Z,10.10
2023-12-28T03:50:37.384Z,10.00
2023-12-28T03:54:46.037Z,10.00
2023-12-28T03:58:55.482Z,9.90
2023-12-28T04:03:04.222Z,9.90
2023-12-28T04:07:13.006Z,9.90
2023-12-28T04:11:21.732Z,9.90
2023-12-28T04:15:30.687Z,9.90
2023-12-28T04:19:39.570Z,9.90
2023-12-28T04:23:48.287Z,9.90
2023-12-28T04:27:57.402Z,9.90
2023-12-28T04:32:06.418Z,9.90
2023-12-28T04:36:15.049Z,9.90
2023-12-28T04:40:23.842Z,9.90
2023-12-28T04:44:32.525Z,9.90
2023-12-28T04:48:41.289Z,9.90
2023-12-28T04:52:50.012Z,9.90
2023-12-28T04:56:58.662Z,9.90
2023-12-28T05:01:07.410Z,9.90
2023-12-28T05:05:16.304Z,9.90
2023-12-28T05:09:25.044Z,9.90
2023-12-28T05:13:35.380Z,9.90
2023-12-28T05:17:44.792Z,9.90
2023-12-28T05:21:53.732Z,10.00
2023-12-28T05:26:02.539Z,10.00
2023-12-28T05:30:12.194Z,10.00
2023-12-28T05:34:21.336Z,10.00
2023-12-28T05:38:30.138Z,10.00
2023-12-28T05:42:38.981Z,10.00
2023-12-28T05:46:47.730Z,10.00
2023-12-28T05:50:56.412Z,10.00
2023-12-28T05:55:05.307Z,10.10
2023-12-28T05:59:15.575Z,10.10
2023-12-28T06:03:25.993Z,10.20
2023-12-28T06:07:35.194Z,10.20
2023-12-28T06:11:43.847Z,10.30
2023-12-28T06:15:52.570Z,10.30
2023-12-28T06:20:01.449Z,10.30
2023-12-28T06:24:10.270Z,10.30
2023-12-28T06:28:18.886Z,10.30
2023-12-28T06:32:28.803Z,10.30
2023-12-28T06:36:37.859Z,10.30
2023-12-28T06:40:46.587Z,10.20
2023-12-28T06:44:55.288Z,10.20
2023-12-28T06:49:05.251Z,10.30
2023-12-28T06:53:14.232Z,10.30
2023-12-28T06:57:22.904Z,10.30
2023-12-28T07:01:31.713Z,10.30
2023-12-28T07:05:40.422Z,10.30
2023-12-28T07:09:49.093Z,10.30
2023-12-28T07:13:57.740Z,10.30
2023-12-28T07:18:06.631Z,10.40
2023-12-28T07:22:15.462Z,10.30
2023-12-28T07:26:24.226Z,10.30
2023-12-28T07:30:32.868Z,10.40
2023-12-28T07:34:41.604Z,10.40
2023-12-28T07:38:50.308Z,10.40
2023-12-28T07:42:59.131Z,10.40
2023-12-28T07:47:10.079Z,10.50
2023-12-28T07:51:18.703Z,10.50
2023-12-28T07:55:27.841Z,10.40
2023-12-28T07:59:36.834Z,10.40
2023-12-28T08:03:45.591Z,10.40
2023-12-28T08:07:54.230Z,10.40
2023-12-28T08:12:03.960Z,10.50
2023-12-28T08:16:12.629Z,10.50
2023-12-28T08:20:21.275Z,10.50
2023-12-28T08:24:30.391Z,10.50
2023-12-28T08:28:39.529Z,10.50
2023-12-28T08:32:48.215Z,10.50
2023-12-28T08:36:57.158Z,10.50
2023-12-28T08:41:07.742Z,10.50
2023-12-28T08:45:16.464Z,10.50
2023-12-28T08:49:25.313Z,10.50
2023-12-28T08:53:34.002Z,10.50
2023-12-28T08:57:43.702Z,10.60
2023-12-28T09:01:57.232Z,10.70
2023-12-28T09:06:06.018Z,10.70
2023-12-28T09:10:15.265Z,10.60
2023-12-28T09:14:23.947Z,10.70
2023-12-28T09:18:32.683Z,10.70
2023-12-28T09:22:41.704Z,10.70
2023-12-28T09:26:50.410Z,10.70
2023-12-28T09:30:59.186Z,10.70
2023-12-28T09:35:08.297Z,10.70
2023-12-28T09:39:17.628Z,10.80
2023-12-28T09:43:30.709Z,10.80
2023-12-28T09:47:39.559Z,10.80
2023-12-28T09:51:49.354Z,10.80
2023-12-28T09:55:58.183Z,10.90
2023-12-28T10:00:08.417Z,10.90
2023-12-28T10:04:18.606Z,10.90
2023-12-28T10:08:27.414Z,10.90
2023-12-28T10:12:36.045Z,10.90
2023-12-28T10:16:44.651Z,10.90
2023-12-28T10:20:54.703Z,10.90
2023-12-28T10:25:04.899Z,10.90
2023-12-28T10:29:14.492Z,10.90
2023-12-28T10:33:24.291Z,11.00
2023-12-28T10:37:34.672Z,11.00
2023-12-28T10:41:45.744Z,11.00
2023-12-28T10:45:57.342Z,11.00
2023-12-28T10:50:08.900Z,11.00
2023-12-28T10:54:51.189Z,11.00
2023-12-28T10:59:02.929Z,11.00
2023-12-28T11:03:13.915Z,11.00
2023-12-28T11:07:23.506Z,11.00
2023-12-28T11:11:32.531Z,11.00
2023-12-28T11:15:41.832Z,11.00
2023-12-28T11:19:51.452Z,11.00
2023-12-28T11:24:00.339Z,11.10
2023-12-28T11:28:13.092Z,11.10
2023-12-28T11:32:21.982Z,11.10
2023-12-28T11:36:39.278Z,11.10
2023-12-28T11:40:48.667Z,11.10
2023-12-28T11:44:57.944Z,11.20
2023-12-28T11:49:31.756Z,11.20
2023-12-28T11:53:45.030Z,11.20
2023-12-28T11:57:53.727Z,11.20
2023-12-28T12:02:03.548Z,11.30
2023-12-28T12:06:12.296Z,11.30
2023-12-28T12:10:21.500Z,11.30
2023-12-28T12:14:31.177Z,11.30
2023-12-28T12:18:40.157Z,11.40
2023-12-28T12:22:50.371Z,11.40
2023-12-28T12:26:58.970Z,11.50
2023-12-28T12:31:07.724Z,11.50
2023-12-28T12:35:16.735Z,11.50
2023-12-28T12:39:28.519Z,11.50
2023-12-28T12:43:37.138Z,11.50
2023-12-28T12:47:46.382Z,11.50
2023-12-28T12:51:55.523Z,11.50
2023-12-28T12:56:06.068Z,11.50
2023-12-28T13:00:15.025Z,11.50
2023-12-28T13:04:24.121Z,11.50
2023-12-28T13:08:32.895Z,11.50
2023-12-28T13:12:41.621Z,11.50
2023-12-28T13:16:52.587Z,11.40
2023-12-28T13:21:02.251Z,11.40
2023-12-28T13:25:10.910Z,11.40
2023-12-28T13:29:19.590Z,11.50
2023-12-28T13:33:28.344Z,11.50
2023-12-28T13:37:37.093Z,11.50
2023-12-28T13:41:46.511Z,11.50
2023-12-28T13:45:55.158Z,11.40
2023-12-28T13:50:03.852Z,11.40
2023-12-28T13:54:13.781Z,11.40
2023-12-28T13:58:22.342Z,11.40
2023-12-28T14:02:30.970Z,11.40
2023-12-28T14:06:39.707Z,11.40
2023-12-28T14:10:48.351Z,11.40
2023-12-28T14:14:57.161Z,11.40
2023-12-28T14:19:05.979Z,11.40
2023-12-28T14:23:15.127Z,11.30
2023-12-28T14:27:24.101Z,11.30
2023-12-28T14:31:32.946Z,11.30
2023-12-28T14:35:42.957Z,11.30
2023-12-28T14:39:52.692Z,11.30
2023-12-28T14:44:01.329Z,11.30
2023-12-28T14:48:10.010Z,11.20
2023-12-28T14:52:18.630Z,11.20
2023-12-28T14:56:30.339Z,11.20
2023-12-28T15:00:39.160Z,11.20
2023-12-28T15:04:48.061Z,11.10
2023-12-28T15:08:56.732Z,11.10
2023-12-28T15:13:24.830Z,11.00
2023-12-28T15:17:35.223Z,11.00
2023-12-28T15:21:46.429Z,10.90
2023-12-28T15:25:56.342Z,10.90
2023-12-28T15:30:06.904Z,10.90
2023-12-28T15:34:16.510Z,10.90
2023-12-28T15:38:25.324Z,10.90
2023-12-28T15:42:34.016Z,10.90
2023-12-28T15:47:02.026Z,10.90
2023-12-28T15:51:10.990Z,10.90
2023-12-28T15:55:19.708Z,10.90
2023-12-28T15:59:28.416Z,10.90
2023-12-28T16:03:37.507Z,10.90
2023-12-28T16:07:46.630Z,10.90
2023-12-28T16:11:55.361Z,10.90
2023-12-28T16:16:06.889Z,10.90
2023-12-28T16:20:16.412Z,10.90
2023-12-28T16:24:25.156Z,10.80
2023-12-28T16:28:35.258Z,10.80
2023-12-28T16:32:45.269Z,10.80
2023-12-28T16:36:54.097Z,10.80
2023-12-28T16:41:03.254Z,10.80
2023-12-28T16:45:11.998Z,10.80
2023-12-28T16:49:20.864Z,10.80
2023-12-28T16:53:41.561Z,10.80
2023-12-28T16:57:50.340Z,10.80
2023-12-28T17:01:59.013Z,10.80
2023-12-28T17:06:08.784Z,10.80
2023-12-28T17:10:17.848Z,10.70
2023-12-28T17:14:26.721Z,10.70
2023-12-28T17:18:36.018Z,10.70
2023-12-28T17:22:47.278Z,10.60
2023-12-28T17:26:59.315Z,10.70
2023-12-28T17:31:12.748Z,10.70
2023-12-28T17:35:22.337Z,10.70
2023-12-28T17:39:31.284Z,10.60
2023-12-28T17:43:42.078Z,10.60
2023-12-28T17:47:56.541Z,10.60
2023-12-28T17:52:05.876Z,10.60
2023-12-28T17:56:16.428Z,10.60
2023-12-28T18:00:25.664Z,10.50
2023-12-28T18:04:34.328Z,10.50
2023-12-28T18:08:43.058Z,10.50
2023-12-28T18:12:51.841Z,10.40
2023-12-28T18:17:00.450Z,10.40
2023-12-28T18:21:13.847Z,10.50
2023-12-28T18:25:22.445Z,10.40
2023-12-28T18:29:31.064Z,10.50
2023-12-28T18:33:39.901Z,10.50
2023-12-28T18:37:48.625Z,10.50
2023-12-28T18:41:58.473Z,10.60
2023-12-28T18:46:07.326Z,10.60
2023-12-28T18:50:15.938Z,10.60
2023-12-28T18:54:24.565Z,10.60
2023-12-28T18:58:33.180Z,10.60
2023-12-28T19:02:41.949Z,10.60
2023-12-28T19:06:50.582Z,10.60
2023-12-28T19:10:59.199Z,10.60
2023-12-28T19:15:08.418Z,10.60
2023-12-28T19:19:17.222Z,10.60
2023-12-28T19:23:26.043Z,10.60
2023-12-28T19:27:34.814Z,10.60
2023-12-28T19:31:43.501Z,10.60
2023-12-28T19:35:52.474Z,10.60
2023-12-28T19:40:01.566Z,10.60
2023-12-28T19:44:10.291Z,10.60
2023-12-28T19:48:19.787Z,10.60
2023-12-28T19:52:28.621Z,10.60
2023-12-28T19:56:37.237Z,10.60
2023-12-28T20:00:46.015Z,10.60
2023-12-28T20:04:56.570Z,10.50
2023-12-28T20:09:05.191Z,10.50
2023-12-28T20:13:14.116Z,10.50
2023-12-28T20:17:25.868Z,10.50
2023-12-28T20:21:35.019Z,10.60
2023-12-28T20:25:43.747Z,10.60
2023-12-28T20:29:52.572Z,10.60
2023-12-28T20:34:01.384Z,10.60
2023-12-28T20:38:10.271Z,10.60
2023-12-28T20:42:18.870Z,10.60
2023-12-28T20:46:28.447Z,10.60
2023-12-28T20:50:37.106Z,10.60
2023-12-28T20:54:45.847Z,10.60
2023-12-28T20:58:54.471Z,10.60
2023-12-28T21:03:03.108Z,10.50
2023-12-28T21:07:13.039Z,10.50
2023-12-28T21:11:21.652Z,10.40
2023-12-28T21:15:30.270Z,10.40
2023-12-28T21:19:47.186Z,10.40
2023-12-28T21:23:51.229Z,10.30
2023-12-28T21:28:00.229Z,10.30
2023-12-28T21:32:09.804Z,10.40
2023-12-28T21:36:18.510Z,10.40
2023-12-28T21:40:27.262Z,10.30
2023-12-28T21:44:35.892Z,10.30
2023-12-28T21:48:44.847Z,10.30
2023-12-28T21:52:55.554Z,10.30
2023-12-28T21:57:04.289Z,10.30
2023-12-28T22:01:13.130Z,10.40
2023-12-28T22:05:21.868Z,10.40
2023-12-28T22:09:31.604Z,10.40
2023-12-28T22:13:40.414Z,10.40
2023-12-28T22:17:50.150Z,10.50
2023-12-28T22:21:58.966Z,10.50
2023-12-28T22:26:07.568Z,10.50
2023-12-28T22:30:18.154Z,10.50
2023-12-28T22:34:26.912Z,10.60
2023-12-28T22:38:35.547Z,10.60
2023-12-28T22:42:44.168Z,10.60
2023-12-28T22:46:54.216Z,10.70
2023-12-28T22:51:22.238Z,10.60
2023-12-28T22:55:30.832Z,10.60
2023-12-28T22:59:43.670Z,10.60
2023-12-28T23:04:11.280Z,10.60
2023-12-28T23:08:20.001Z,10.60
2023-12-28T23:12:28.658Z,10.60
2023-12-28T23:16:37.275Z,10.60
2023-12-28T23:20:46.033Z,10.70
2023-12-28T23:24:54.776Z,10.70
2023-12-28T23:29:03.493Z,10.70
2023-12-28T23:33:14.074Z,10.70
2023-12-28T23:37:22.732Z,10.80
2023-12-28T23:41:31.374Z,10.70
2023-12-28T23:45:41.490Z,10.80
2023-12-28T23:49:50.262Z,10.80
2023-12-28T23:53:58.923Z,10.80
2023-12-28T23:58:27.080Z,10.80
